Terminal Aerodrome Forecast
Issued by NWS

Home | Current Version | Previous Version | Text Only | Print | Product List | Glossary On
Versions: 1 2 3 4 5 6 7 8 9 10 11 12 13 14 15 16 17 18 19 20 21 22 23 24 25 26
000
FTUS43 KDTX 260530
TAFYIP
TAF
KYIP 260530Z 2606/2706 20008KT P6SM SCT060 BKN200
      TEMPO 2611/2614 BKN018
     FM261600 20012KT P6SM SCT045 BKN200
     FM270000 18009KT P6SM -SHRA OVC045 PROB30 2700/2703 3SM TSRA
      OVC030CB=

USA.gov is the U.S. government's official web portal to all federal, state and local government web resources and services.